createdAt,value
2022-09-15T00:02:03.253Z,2.50
2022-09-15T00:04:30.114Z,2.75
2022-09-15T00:06:56.773Z,2.80
2022-09-15T00:09:23.426Z,2.80
2022-09-15T00:11:50.058Z,3.28
2022-09-15T00:14:16.667Z,2.80
2022-09-15T00:16:43.453Z,2.72
2022-09-15T00:19:10.142Z,2.83
2022-09-15T00:21:40.066Z,3.08
2022-09-15T00:24:07.780Z,3.10
2022-09-15T00:26:35.310Z,3.03
2022-09-15T00:29:02.599Z,3.42
2022-09-15T00:31:30.890Z,3.55
2022-09-15T00:33:59.798Z,3.40
2022-09-15T00:36:26.902Z,3.22
2022-09-15T00:38:53.627Z,2.97
2022-09-15T00:41:22.004Z,3.65
2022-09-15T00:43:58.111Z,3.03
2022-09-15T00:46:33.781Z,3.33
2022-09-15T00:49:09.297Z,2.78
2022-09-15T00:51:42.960Z,3.13
2022-09-15T00:54:16.032Z,3.40
2022-09-15T00:56:44.079Z,3.63
2022-09-15T00:59:15.331Z,3.63
2022-09-15T01:01:43.707Z,3.70
2022-09-15T01:04:10.796Z,3.03
2022-09-15T01:06:42.600Z,3.55
2022-09-15T01:09:14.285Z,3.80
2022-09-15T01:11:41.999Z,4.13
2022-09-15T01:14:09.115Z,3.63
2022-09-15T01:16:53.679Z,3.95
2022-09-15T01:19:47.439Z,3.40
2022-09-15T01:22:32.070Z,4.05
2022-09-15T01:25:15.647Z,3.45
2022-09-15T01:28:20.023Z,3.63
2022-09-15T01:31:00.869Z,3.33
2022-09-15T01:33:53.523Z,3.78
2022-09-15T01:36:25.027Z,3.47
2022-09-15T01:39:23.620Z,3.47
2022-09-15T01:41:55.938Z,3.15
2022-09-15T01:44:27.692Z,3.53
2022-09-15T01:47:01.452Z,3.80
2022-09-15T01:49:38.317Z,3.38
2022-09-15T01:52:05.798Z,3.15
2022-09-15T01:54:37.200Z,3.40
2022-09-15T01:57:04.125Z,3.38
2022-09-15T01:59:30.817Z,3.40
2022-09-15T02:02:07.309Z,2.83
2022-09-15T02:04:46.856Z,3.13
2022-09-15T02:07:27.506Z,3.28
2022-09-15T02:09:57.487Z,3.38
2022-09-15T02:12:35.033Z,3.67
2022-09-15T02:15:14.945Z,3.78
2022-09-15T02:17:46.040Z,2.88
2022-09-15T02:20:43.182Z,2.67
2022-09-15T02:23:17.084Z,2.95
2022-09-15T02:25:48.853Z,3.10
2022-09-15T02:28:20.452Z,2.90
2022-09-15T02:30:49.316Z,3.33
2022-09-15T02:33:20.690Z,2.83
2022-09-15T02:35:47.862Z,2.78
2022-09-15T02:38:15.087Z,2.97
2022-09-15T02:40:44.310Z,2.85
2022-09-15T02:43:17.634Z,3.35
2022-09-15T02:45:44.542Z,2.85
2022-09-15T02:48:11.618Z,2.92
2022-09-15T02:50:39.163Z,2.63
2022-09-15T02:53:06.008Z,3.20
2022-09-15T02:55:33.493Z,2.97
2022-09-15T02:58:00.196Z,2.70
2022-09-15T03:00:28.247Z,3.58
2022-09-15T03:02:55.532Z,2.92
2022-09-15T03:05:25.379Z,2.95
2022-09-15T03:07:53.328Z,2.90
2022-09-15T03:10:21.258Z,2.90
2022-09-15T03:12:50.590Z,2.70
2022-09-15T03:15:19.767Z,2.72
2022-09-15T03:17:48.083Z,2.92
2022-09-15T03:20:18.582Z,2.78
2022-09-15T03:22:45.250Z,2.97
2022-09-15T03:25:13.351Z,2.95
2022-09-15T03:27:40.068Z,2.53
2022-09-15T03:30:07.582Z,2.83
2022-09-15T03:32:34.292Z,2.83
2022-09-15T03:35:01.017Z,2.55
2022-09-15T03:37:28.384Z,2.33
2022-09-15T03:39:55.683Z,2.63
2022-09-15T03:42:22.640Z,2.50
2022-09-15T03:44:49.285Z,2.38
2022-09-15T03:47:15.921Z,2.80
2022-09-15T03:49:42.705Z,2.33
2022-09-15T03:52:09.855Z,1.98
2022-09-15T03:54:36.525Z,2.00
2022-09-15T03:57:03.379Z,2.05
2022-09-15T03:59:30.077Z,2.28
2022-09-15T04:01:56.933Z,1.95
2022-09-15T04:04:23.659Z,2.13
2022-09-15T04:06:50.294Z,2.10
2022-09-15T04:09:17.042Z,2.05
2022-09-15T04:11:43.708Z,2.08
2022-09-15T04:14:10.309Z,1.90
2022-09-15T04:16:36.978Z,1.85
2022-09-15T04:19:03.954Z,1.85
2022-09-15T04:21:31.965Z,1.95
2022-09-15T04:23:58.667Z,2.03
2022-09-15T04:26:31.101Z,2.25
2022-09-15T04:31:30.863Z,2.13
2022-09-15T04:33:57.883Z,2.10
2022-09-15T04:36:28.116Z,2.08
2022-09-15T04:38:55.304Z,2.10
2022-09-15T04:41:22.734Z,2.00
2022-09-15T04:43:49.828Z,1.92
2022-09-15T04:46:18.331Z,1.90
2022-09-15T04:48:46.190Z,1.83
2022-09-15T04:51:22.333Z,1.65
2022-09-15T04:53:50.194Z,2.00
2022-09-15T04:56:22.449Z,1.80
2022-09-15T04:58:52.567Z,1.63
2022-09-15T05:01:25.765Z,1.70
2022-09-15T05:03:54.503Z,1.40
2022-09-15T05:06:29.704Z,1.52
2022-09-15T05:08:57.976Z,1.60
2022-09-15T05:11:25.734Z,1.92
2022-09-15T05:13:53.065Z,1.92
2022-09-15T05:16:25.265Z,1.60
2022-09-15T05:18:53.955Z,1.40
2022-09-15T05:21:21.999Z,1.20
2022-09-15T05:23:49.267Z,1.80
2022-09-15T05:26:18.562Z,1.40
2022-09-15T05:28:45.977Z,1.48
2022-09-15T05:31:21.443Z,1.50
2022-09-15T05:33:49.718Z,1.95
2022-09-15T05:36:17.397Z,1.52
2022-09-15T05:38:44.477Z,2.10
2022-09-15T05:41:16.893Z,1.70
2022-09-15T05:46:11.094Z,1.50
2022-09-15T05:48:37.803Z,1.50
2022-09-15T05:51:04.992Z,1.92
2022-09-15T05:53:34.740Z,1.73
2022-09-15T05:56:05.045Z,1.55
2022-09-15T05:58:32.931Z,1.70
2022-09-15T06:01:07.810Z,1.38
2022-09-15T06:03:35.594Z,1.60
2022-09-15T06:06:04.197Z,1.60
2022-09-15T06:08:36.312Z,1.30
2022-09-15T06:11:11.746Z,1.50
2022-09-15T06:13:38.497Z,1.20
2022-09-15T06:16:10.637Z,1.17
2022-09-15T06:18:38.707Z,1.00
2022-09-15T06:21:17.572Z,1.17
2022-09-15T06:23:48.598Z,1.13
2022-09-15T06:26:19.041Z,1.10
2022-09-15T06:28:49.859Z,1.23
2022-09-15T06:31:17.524Z,1.50
2022-09-15T06:33:46.667Z,1.13
2022-09-15T06:36:14.851Z,1.10
2022-09-15T06:38:42.271Z,1.20
2022-09-15T06:41:09.629Z,1.10
2022-09-15T06:43:36.680Z,1.02
2022-09-15T06:46:11.976Z,1.30
2022-09-15T06:48:39.810Z,0.75
2022-09-15T06:51:08.102Z,1.17
2022-09-15T06:53:38.052Z,1.33
2022-09-15T06:56:05.859Z,1.48
2022-09-15T06:58:35.076Z,1.00
2022-09-15T07:01:03.995Z,1.20
2022-09-15T07:03:31.277Z,1.00
2022-09-15T07:05:58.229Z,1.20
2022-09-15T07:08:24.924Z,1.10
2022-09-15T07:10:51.604Z,1.20
2022-09-15T07:13:18.243Z,1.58
2022-09-15T07:15:56.645Z,1.20
2022-09-15T07:18:24.371Z,1.30
2022-09-15T07:20:52.016Z,1.25
2022-09-15T07:23:19.279Z,1.40
2022-09-15T07:25:45.973Z,1.55
2022-09-15T07:28:12.605Z,1.35
2022-09-15T07:30:39.605Z,0.90
2022-09-15T07:33:07.359Z,1.15
2022-09-15T07:35:34.268Z,1.40
2022-09-15T07:38:00.904Z,1.27
2022-09-15T07:40:28.783Z,0.98
2022-09-15T07:42:55.992Z,1.10
2022-09-15T07:45:22.701Z,1.20
2022-09-15T07:47:49.436Z,1.60
2022-09-15T07:50:16.446Z,1.15
2022-09-15T07:52:43.164Z,0.75
2022-09-15T07:55:10.023Z,1.10
2022-09-15T07:57:36.667Z,1.17
2022-09-15T08:00:05.252Z,1.00
2022-09-15T08:02:38.945Z,0.70
2022-09-15T08:05:05.999Z,0.73
2022-09-15T08:07:32.663Z,1.15
2022-09-15T08:09:59.320Z,0.93
2022-09-15T08:12:26.087Z,0.70
2022-09-15T08:14:52.751Z,0.90
2022-09-15T08:17:19.819Z,0.77
2022-09-15T08:19:46.994Z,1.10
2022-09-15T08:22:13.984Z,1.10
2022-09-15T08:24:40.684Z,0.88
2022-09-15T08:27:07.348Z,1.00
2022-09-15T08:29:34.181Z,0.60
2022-09-15T08:32:00.970Z,0.60
2022-09-15T08:34:29.621Z,0.73
2022-09-15T08:36:56.299Z,0.80
2022-09-15T08:39:23.020Z,0.60
2022-09-15T08:41:52.857Z,0.82
2022-09-15T08:44:33.332Z,0.80
2022-09-15T08:47:18.952Z,0.93
2022-09-15T08:49:52.098Z,0.57
2022-09-15T08:52:25.747Z,0.70
2022-09-15T08:54:55.219Z,1.33
2022-09-15T08:57:24.457Z,1.13
2022-09-15T08:59:51.956Z,1.15
2022-09-15T09:02:29.388Z,0.90
2022-09-15T09:05:20.338Z,0.90
2022-09-15T09:08:18.831Z,0.80
2022-09-15T09:11:09.715Z,0.70
2022-09-15T09:13:56.414Z,1.05
2022-09-15T09:16:26.212Z,0.90
2022-09-15T09:19:32.349Z,0.90
2022-09-15T09:22:05.053Z,1.00
2022-09-15T09:24:44.814Z,1.33
2022-09-15T09:27:18.168Z,1.02
2022-09-15T09:29:51.833Z,0.90
2022-09-15T09:32:26.515Z,0.73
2022-09-15T09:35:13.898Z,0.90
2022-09-15T09:37:40.683Z,0.77
2022-09-15T09:40:13.056Z,0.52
2022-09-15T09:42:40.394Z,0.80
2022-09-15T09:45:11.277Z,0.68
2022-09-15T09:47:40.093Z,1.20
2022-09-15T09:50:43.475Z,0.70
2022-09-15T09:53:28.666Z,1.02
2022-09-15T09:56:16.291Z,0.77
2022-09-15T09:58:43.634Z,1.17
2022-09-15T10:01:18.775Z,0.73
2022-09-15T10:03:46.334Z,1.00
2022-09-15T10:06:24.577Z,1.13
2022-09-15T10:08:57.896Z,0.98
2022-09-15T10:11:46.599Z,1.10
2022-09-15T10:14:25.883Z,0.70
2022-09-15T10:17:07.281Z,0.60
2022-09-15T10:19:43.953Z,1.00
2022-09-15T10:22:35.287Z,0.73
2022-09-15T10:25:20.824Z,0.55
2022-09-15T10:28:09.568Z,0.80
2022-09-15T10:30:36.875Z,0.90
2022-09-15T10:33:24.068Z,0.85
2022-09-15T10:35:51.780Z,0.75
2022-09-15T10:38:29.940Z,1.02
2022-09-15T10:41:03.524Z,1.50
2022-09-15T10:43:50.535Z,1.08
2022-09-15T10:46:29.213Z,1.45
2022-09-15T10:49:07.852Z,1.15
2022-09-15T10:52:01.365Z,0.98
2022-09-15T10:54:38.827Z,0.80
2022-09-15T10:57:34.232Z,1.00
2022-09-15T11:00:10.347Z,0.93
2022-09-15T11:02:55.652Z,1.23
2022-09-15T11:05:46.413Z,0.70
2022-09-15T11:08:44.685Z,0.68
2022-09-15T11:11:39.186Z,0.80
2022-09-15T11:14:23.891Z,0.88
2022-09-15T11:17:11.851Z,0.95
2022-09-15T11:20:03.149Z,0.88
2022-09-15T11:22:45.037Z,0.90
2022-09-15T11:25:28.073Z,1.40
2022-09-15T11:28:04.420Z,1.10
2022-09-15T11:31:02.339Z,0.60
2022-09-15T11:33:43.300Z,0.90
2022-09-15T11:36:22.734Z,1.38
2022-09-15T11:39:04.299Z,1.02
2022-09-15T11:41:43.820Z,1.10
2022-09-15T11:44:27.577Z,1.00
2022-09-15T11:47:19.455Z,0.80
2022-09-15T11:50:01.754Z,0.90
2022-09-15T11:55:26.447Z,1.13
2022-09-15T11:58:21.063Z,1.02
2022-09-15T12:01:17.171Z,1.08
2022-09-15T12:03:50.534Z,0.60
2022-09-15T12:06:34.980Z,0.80
2022-09-15T12:09:04.673Z,0.60
2022-09-15T12:11:38.005Z,0.80
2022-09-15T12:14:05.772Z,0.73
2022-09-15T12:16:34.580Z,0.93
2022-09-15T12:19:09.074Z,0.60
2022-09-15T12:21:53.117Z,0.75
2022-09-15T12:24:28.492Z,0.68
2022-09-15T12:26:55.289Z,0.65
2022-09-15T12:29:21.899Z,0.85
2022-09-15T12:32:28.864Z,0.70
2022-09-15T12:35:04.118Z,0.57
2022-09-15T12:37:42.928Z,0.60
2022-09-15T12:40:30.433Z,0.80
2022-09-15T12:42:57.763Z,0.70
2022-09-15T12:45:27.234Z,0.70
2022-09-15T12:48:14.073Z,0.70
2022-09-15T12:50:43.034Z,0.95
2022-09-15T12:53:26.031Z,0.43
2022-09-15T12:55:58.663Z,1.02
2022-09-15T12:58:42.165Z,1.00
2022-09-15T13:01:27.148Z,0.82
2022-09-15T13:03:55.035Z,0.60
2022-09-15T13:06:26.212Z,0.45
2022-09-15T13:09:26.739Z,0.43
2022-09-15T13:11:55.828Z,0.55
2022-09-15T13:14:41.852Z,0.65
2022-09-15T13:17:19.873Z,0.50
2022-09-15T13:19:50.192Z,0.82
2022-09-15T13:22:27.044Z,0.70
2022-09-15T13:25:15.557Z,1.10
2022-09-15T13:27:59.886Z,0.70
2022-09-15T13:31:03.319Z,0.60
2022-09-15T13:40:14.633Z,0.82
2022-09-15T13:43:10.686Z,1.05
2022-09-15T13:46:12.581Z,1.10
2022-09-15T13:49:15.962Z,1.13
2022-09-15T13:51:53.214Z,0.85
2022-09-15T13:54:20.419Z,0.90
2022-09-15T13:56:48.992Z,0.80
2022-09-15T13:59:30.262Z,0.95
2022-09-15T14:01:58.946Z,0.85
2022-09-15T14:04:31.328Z,1.05
2022-09-15T14:09:35.301Z,1.30
2022-09-15T14:12:07.693Z,1.00
2022-09-15T14:14:47.291Z,0.80
2022-09-15T14:17:23.863Z,0.63
2022-09-15T14:19:55.956Z,1.00
2022-09-15T14:22:34.058Z,0.80
2022-09-15T14:25:07.182Z,1.00
2022-09-15T14:27:35.870Z,1.10
2022-09-15T14:30:09.157Z,1.05
2022-09-15T14:32:39.813Z,0.98
2022-09-15T14:35:09.282Z,0.85
2022-09-15T14:37:36.455Z,0.82
2022-09-15T14:40:19.604Z,0.47
2022-09-15T14:42:46.372Z,0.90
2022-09-15T14:48:15.836Z,0.98
2022-09-15T14:50:45.031Z,0.73
2022-09-15T14:53:20.583Z,0.90
2022-09-15T14:56:08.023Z,1.02
2022-09-15T14:58:45.502Z,0.57
2022-09-15T15:01:48.698Z,0.65
2022-09-15T15:04:22.997Z,0.50
2022-09-15T15:07:11.203Z,1.05
2022-09-15T15:09:46.702Z,1.33
2022-09-15T15:12:19.163Z,1.00
2022-09-15T15:14:46.254Z,0.52
2022-09-15T15:17:40.431Z,0.73
2022-09-15T15:20:09.837Z,0.93
2022-09-15T15:22:37.509Z,1.00
2022-09-15T15:25:20.860Z,0.55
2022-09-15T15:28:01.030Z,1.27
2022-09-15T15:30:43.884Z,0.73
2022-09-15T15:33:28.021Z,1.00
2022-09-15T15:36:07.099Z,0.95
2022-09-15T15:38:36.789Z,1.30
2022-09-15T15:41:06.369Z,0.77
2022-09-15T15:43:34.312Z,0.75
2022-09-15T15:46:04.336Z,2.28
2022-09-15T15:48:36.916Z,1.08
2022-09-15T15:51:06.406Z,0.73
2022-09-15T15:53:34.214Z,0.85
2022-09-15T15:56:01.113Z,0.70
2022-09-15T15:58:28.049Z,0.70
2022-09-15T16:00:56.584Z,0.70
2022-09-15T16:03:24.462Z,0.60
2022-09-15T16:05:54.119Z,1.10
2022-09-15T16:08:29.607Z,0.70
2022-09-15T16:10:57.055Z,0.50
2022-09-15T16:13:24.748Z,0.77
2022-09-15T16:15:54.173Z,0.90
2022-09-15T16:18:21.383Z,1.10
2022-09-15T16:20:48.314Z,0.52
2022-09-15T16:23:17.935Z,0.80
2022-09-15T16:25:49.685Z,0.75
2022-09-15T16:28:17.451Z,0.60
2022-09-15T16:30:44.488Z,0.32
2022-09-15T16:33:15.707Z,0.85
2022-09-15T16:35:56.111Z,0.73
2022-09-15T16:38:25.442Z,0.50
2022-09-15T16:40:52.625Z,0.60
2022-09-15T16:43:21.545Z,1.08
2022-09-15T16:45:49.487Z,0.50
2022-09-15T16:48:17.361Z,0.60
2022-09-15T16:50:50.729Z,0.80
2022-09-15T16:53:30.832Z,0.88
2022-09-15T16:55:57.540Z,1.35
2022-09-15T16:58:24.288Z,0.80
2022-09-15T17:00:52.520Z,0.40
2022-09-15T17:03:21.387Z,0.93
2022-09-15T17:05:50.093Z,0.60
2022-09-15T17:08:19.477Z,0.60
2022-09-15T17:10:47.432Z,0.50
2022-09-15T17:13:22.281Z,0.40
2022-09-15T17:15:50.954Z,0.47
2022-09-15T17:18:17.704Z,0.70
2022-09-15T17:20:45.838Z,0.90
2022-09-15T17:23:23.883Z,0.55
2022-09-15T17:25:53.232Z,0.40
2022-09-15T17:28:22.625Z,0.80
2022-09-15T17:30:51.944Z,0.50
2022-09-15T17:33:20.358Z,0.52
2022-09-15T17:35:48.689Z,0.65
2022-09-15T17:38:16.017Z,0.85
2022-09-15T17:40:43.019Z,0.70
2022-09-15T17:43:19.372Z,0.63
2022-09-15T17:45:46.959Z,0.90
2022-09-15T17:48:13.669Z,0.47
2022-09-15T17:50:41.779Z,0.82
2022-09-15T17:53:23.447Z,0.75
2022-09-15T17:55:50.739Z,0.53
2022-09-15T17:58:18.213Z,0.50
2022-09-15T18:00:45.814Z,1.05
2022-09-15T18:03:30.775Z,0.40
2022-09-15T18:05:59.751Z,0.77
2022-09-15T18:08:27.937Z,0.68
2022-09-15T18:10:55.498Z,0.70
2022-09-15T18:13:24.584Z,0.45
2022-09-15T18:15:51.471Z,0.60
2022-09-15T18:18:20.868Z,0.57
2022-09-15T18:20:49.920Z,0.90
2022-09-15T18:23:22.444Z,0.68
2022-09-15T18:25:50.027Z,0.77
2022-09-15T18:28:18.254Z,0.95
2022-09-15T18:30:48.125Z,0.55
2022-09-15T18:33:17.221Z,0.90
2022-09-15T18:35:44.722Z,1.08
2022-09-15T18:38:13.083Z,0.70
2022-09-15T18:40:45.247Z,0.65
2022-09-15T18:43:12.031Z,0.65
2022-09-15T18:45:40.825Z,0.90
2022-09-15T18:48:11.989Z,0.50
2022-09-15T18:53:07.538Z,0.32
2022-09-15T18:55:34.249Z,0.50
2022-09-15T18:58:01.375Z,0.55
2022-09-15T19:00:29.142Z,0.52
2022-09-15T19:02:57.582Z,0.55
2022-09-15T19:05:25.343Z,0.38
2022-09-15T19:07:52.059Z,0.40
2022-09-15T19:10:18.893Z,0.50
2022-09-15T19:12:45.674Z,0.65
2022-09-15T19:15:14.057Z,0.70
2022-09-15T19:17:42.063Z,0.82
2022-09-15T19:20:11.521Z,0.60
2022-09-15T19:22:38.438Z,0.47
2022-09-15T19:25:07.709Z,0.65
2022-09-15T19:27:35.133Z,0.80
2022-09-15T19:30:02.082Z,0.82
2022-09-15T19:32:28.840Z,0.52
2022-09-15T19:34:55.574Z,0.70
2022-09-15T19:37:22.793Z,0.50
2022-09-15T19:39:49.994Z,0.57
2022-09-15T19:42:17.399Z,0.60
2022-09-15T19:44:45.981Z,0.80
2022-09-15T19:47:12.708Z,0.50
2022-09-15T19:49:39.472Z,0.88
2022-09-15T19:52:06.470Z,0.90
2022-09-15T19:54:34.356Z,0.60
2022-09-15T19:57:01.369Z,1.23
2022-09-15T19:59:31.281Z,0.50
2022-09-15T20:01:59.136Z,0.40
2022-09-15T20:04:26.768Z,0.90
2022-09-15T20:06:53.525Z,1.10
2022-09-15T20:09:20.278Z,0.85
2022-09-15T20:11:47.114Z,0.90
2022-09-15T20:14:14.292Z,0.70
2022-09-15T20:16:41.078Z,0.80
2022-09-15T20:19:07.832Z,0.82
2022-09-15T20:21:52.481Z,0.73
2022-09-15T20:24:20.243Z,0.70
2022-09-15T20:26:47.400Z,0.82
2022-09-15T20:29:14.367Z,0.90
2022-09-15T20:31:41.391Z,0.90
2022-09-15T20:34:08.073Z,0.70
2022-09-15T20:36:37.456Z,0.88
2022-09-15T20:39:08.682Z,0.90
2022-09-15T20:41:35.494Z,1.10
2022-09-15T20:44:02.382Z,0.70
2022-09-15T20:46:31.149Z,1.10
2022-09-15T20:48:57.850Z,1.20
2022-09-15T20:51:31.505Z,0.98
2022-09-15T20:53:59.730Z,1.05
2022-09-15T20:56:28.806Z,1.20
2022-09-15T20:58:59.736Z,1.17
2022-09-15T21:01:36.529Z,1.25
2022-09-15T21:04:04.187Z,1.00
2022-09-15T21:06:31.476Z,0.88
2022-09-15T21:08:58.628Z,1.27
2022-09-15T21:11:27.428Z,1.10
2022-09-15T21:13:55.406Z,0.82
2022-09-15T21:16:25.078Z,0.90
2022-09-15T21:18:52.187Z,1.00
2022-09-15T21:21:24.229Z,1.00
2022-09-15T21:23:53.878Z,1.35
2022-09-15T21:26:23.085Z,0.70
2022-09-15T21:28:50.570Z,1.00
2022-09-15T21:31:19.806Z,0.75
2022-09-15T21:33:47.824Z,1.10
2022-09-15T21:36:17.417Z,1.00
2022-09-15T21:38:44.608Z,0.80
2022-09-15T21:41:13.774Z,0.85
2022-09-15T21:43:41.906Z,1.17
2022-09-15T21:46:11.749Z,0.93
2022-09-15T21:48:38.835Z,0.88
2022-09-15T21:51:06.762Z,1.17
2022-09-15T21:53:34.956Z,1.05
2022-09-15T21:56:03.372Z,1.10
2022-09-15T21:58:39.064Z,1.10
2022-09-15T22:01:29.813Z,0.93
2022-09-15T22:03:57.680Z,1.20
2022-09-15T22:06:27.622Z,1.30
2022-09-15T22:08:55.324Z,1.05
2022-09-15T22:11:23.061Z,1.40
2022-09-15T22:13:49.806Z,1.38
2022-09-15T22:16:19.005Z,1.35
2022-09-15T22:18:46.258Z,1.30
2022-09-15T22:21:17.808Z,1.50
2022-09-15T22:23:46.170Z,1.20
2022-09-15T22:26:19.403Z,1.67
2022-09-15T22:28:46.154Z,1.40
2022-09-15T22:31:15.035Z,1.30
2022-09-15T22:33:42.378Z,1.23
2022-09-15T22:36:13.588Z,1.23
2022-09-15T22:38:40.541Z,1.08
2022-09-15T22:41:09.994Z,1.30
2022-09-15T22:43:36.910Z,0.80
2022-09-15T22:46:04.267Z,1.10
2022-09-15T22:48:31.269Z,0.93
2022-09-15T22:50:58.714Z,1.05
2022-09-15T22:53:25.943Z,1.23
2022-09-15T22:56:04.858Z,1.38
2022-09-15T22:58:32.839Z,1.30
2022-09-15T23:01:08.029Z,1.33
2022-09-15T23:03:35.024Z,1.20
2022-09-15T23:06:02.123Z,1.08
2022-09-15T23:08:30.534Z,1.10
2022-09-15T23:11:03.204Z,1.05
2022-09-15T23:13:30.173Z,0.90
2022-09-15T23:15:56.880Z,0.70
2022-09-15T23:18:23.665Z,1.17
2022-09-15T23:21:01.500Z,0.80
2022-09-15T23:23:29.421Z,1.05
2022-09-15T23:25:56.588Z,1.10
2022-09-15T23:28:23.765Z,0.90
2022-09-15T23:30:55.265Z,1.02
2022-09-15T23:33:23.488Z,0.80
2022-09-15T23:35:50.621Z,1.10
2022-09-15T23:38:18.796Z,0.80
2022-09-15T23:40:46.453Z,0.85
2022-09-15T23:43:14.081Z,0.95
2022-09-15T23:45:41.983Z,0.90
2022-09-15T23:48:09.369Z,1.08
2022-09-15T23:50:37.209Z,0.90
2022-09-15T23:53:04.329Z,0.95
2022-09-15T23:55:31.324Z,1.13
2022-09-15T23:57:58.045Z,1.67
